Time;durP1;ratioP1;P1;durP2;ratioP2;P2;SDS_P1;SDS_P2;PMS_P1;PMS_P2;Temp;Humidity;BMP_temperature;BMP_pressure;BME280_temperature;BME280_humidity;BME280_pressure;Samples;Min_cycle;Max_cycle;Signal;HPM_P1;HPM_P2
2023/02/18 06:29:23;;;;;;;;;2.00;1.00;;;;;12.23;100.00;102502.00;5845530;23;50101;-67
2023/02/18 06:31:48;;;;;;;;;2.00;2.00;;;;;12.19;100.00;102454.44;4920687;28;49891;-68
2023/02/18 06:34:14;;;;;;;;;3.00;3.00;;;;;12.52;100.00;102507.56;4914339;28;49719;-68
2023/02/18 06:36:39;;;;;;;;;2.75;1.75;;;;;12.76;100.00;102552.47;4914820;28;49917;-68
2023/02/18 06:39:05;;;;;;;;;1.25;1.25;;;;;12.75;100.00;102556.84;4926426;28;49618;-68
2023/02/18 06:41:30;;;;;;;;;2.75;1.00;;;;;12.70;100.00;102555.75;4932081;28;49439;-69
2023/02/18 06:43:56;;;;;;;;;2.75;2.75;;;;;12.39;100.00;102485.09;4931905;28;49283;-68
2023/02/18 06:46:21;;;;;;;;;4.00;2.75;;;;;12.48;100.00;102501.28;4931461;28;49593;-68
2023/02/18 06:48:47;;;;;;;;;1.25;1.25;;;;;12.17;100.00;102450.84;4929333;28;49680;-68
2023/02/18 06:51:13;;;;;;;;;1.25;1.25;;;;;12.11;100.00;102445.31;4929699;28;49735;-68
2023/02/18 06:53:38;;;;;;;;;1.00;1.00;;;;;12.11;100.00;102445.31;4929998;28;49206;-68
2023/02/18 06:56:04;;;;;;;;;2.75;2.75;;;;;12.36;100.00;102489.38;4929875;28;49489;-69
2023/02/18 06:58:29;;;;;;;;;2.00;2.00;;;;;12.56;100.00;102518.31;4930294;28;49717;-68
2023/02/18 07:00:55;;;;;;;;;2.25;2.25;;;;;11.97;100.00;102402.66;4926634;28;49526;-68
2023/02/18 07:03:20;;;;;;;;;2.00;2.00;;;;;12.75;100.00;102537.50;4914215;28;49978;-68
2023/02/18 07:05:48;;;;;;;;;4.25;4.00;;;;;12.42;100.00;102487.84;4914020;28;50324;-68
2023/02/18 07:08:15;;;;;;;;;2.75;2.75;;;;;12.37;100.00;102492.06;4913610;28;50025;-68
2023/02/18 07:10:40;;;;;;;;;4.75;3.00;;;;;12.03;100.00;102422.19;4913877;28;49981;-68
2023/02/18 07:13:06;;;;;;;;;5.00;4.00;;;;;12.71;100.00;102539.09;4913735;28;49895;-68
2023/02/18 07:15:32;;;;;;;;;5.75;5.75;;;;;12.70;100.00;102528.50;4912811;28;50096;-68
2023/02/18 07:17:57;;;;;;;;;4.75;4.00;;;;;12.50;100.00;102491.72;4913917;28;49999;-69
2023/02/18 07:20:23;;;;;;;;;4.25;3.50;;;;;12.83;100.00;102550.13;4913835;28;49838;-69
2023/02/18 07:22:49;;;;;;;;;4.00;4.00;;;;;12.57;100.00;102503.41;4913291;28;49970;-69
2023/02/18 07:25:15;;;;;;;;;8.75;7.75;;;;;12.46;100.00;102483.63;4913382;28;49870;-69
2023/02/18 07:27:40;;;;;;;;;3.00;3.00;;;;;12.86;100.00;102554.63;4913533;28;49842;-69
2023/02/18 07:30:06;;;;;;;;;5.50;5.50;;;;;12.47;100.00;102485.44;4913378;28;49783;-69
2023/02/18 07:32:32;;;;;;;;;5.00;4.50;;;;;12.68;100.00;102532.81;4912160;28;49896;-68
2023/02/18 07:34:57;;;;;;;;;5.75;4.00;;;;;12.76;100.00;102548.09;4914024;28;49951;-69
2023/02/18 07:37:22;;;;;;;;;3.75;3.75;;;;;12.71;100.00;102519.75;4916430;28;50798;-69
2023/02/18 07:39:48;;;;;;;;;6.25;5.00;;;;;12.49;100.00;102479.38;4930109;28;49486;-69
2023/02/18 07:42:13;;;;;;;;;5.75;3.00;;;;;12.33;100.00;102454.16;4931366;28;49304;-69
2023/02/18 07:44:40;;;;;;;;;4.00;4.00;;;;;12.87;100.00;102549.41;4931035;28;49361;-69
2023/02/18 07:47:06;;;;;;;;;4.25;2.75;;;;;12.93;100.00;102558.38;4930839;28;49734;-68
2023/02/18 07:49:32;;;;;;;;;4.50;4.50;;;;;13.01;100.00;102559.59;4930793;28;49234;-69
2023/02/18 07:51:58;;;;;;;;;4.00;4.00;;;;;12.74;100.00;102519.84;4930349;28;49822;-69
2023/02/18 07:54:24;;;;;;;;;3.50;3.50;;;;;12.85;100.00;102548.47;4930654;28;49590;-68
2023/02/18 07:56:49;;;;;;;;;6.25;3.75;;;;;12.75;100.00;102512.03;4925109;28;50429;-67
2023/02/18 07:59:15;;;;;;;;;4.50;3.25;;;;;12.99;100.00;102545.47;4912493;28;49856;-68
2023/02/18 08:01:40;;;;;;;;;3.25;3.00;;;;;12.85;100.00;102534.38;4912679;28;50258;-68
2023/02/18 08:04:06;;;;;;;;;4.00;4.00;;;;;12.77;100.00;102520.91;4911245;28;49885;-68
2023/02/18 08:06:38;;;;;;;;;3.00;3.00;;;;;12.64;100.00;102491.34;4912895;28;49838;-77
2023/02/18 08:09:04;;;;;;;;;4.00;2.25;;;;;12.91;100.00;102531.97;4911886;28;49961;-67
2023/02/18 08:11:30;;;;;;;;;4.00;4.00;;;;;12.75;100.00;102519.94;4913062;28;49878;-71
2023/02/18 08:13:55;;;;;;;;;3.25;2.00;;;;;12.88;100.00;102532.75;4913241;28;50124;-68
2023/02/18 08:16:24;;;;;;;;;3.00;3.00;;;;;12.51;100.00;102477.69;4912677;28;49990;-77
2023/02/18 08:18:51;;;;;;;;;8.00;2.50;;;;;12.96;100.00;102546.25;4913253;28;49651;-70
2023/02/18 08:21:19;;;;;;;;;4.00;3.50;;;;;12.97;100.00;102537.50;4912434;28;49627;-67
2023/02/18 08:23:45;;;;;;;;;5.50;3.50;;;;;13.12;100.00;102563.56;4912828;28;49596;-69
2023/02/18 08:26:11;;;;;;;;;3.00;3.00;;;;;13.04;100.00;102552.72;4912922;28;51172;-72
2023/02/18 08:28:36;;;;;;;;;3.00;3.00;;;;;12.56;100.00;102470.88;4912722;28;50014;-68
2023/02/18 08:31:02;;;;;;;;;2.00;2.00;;;;;12.04;100.00;102379.25;4912889;28;50283;-76
2023/02/18 08:33:28;;;;;;;;;2.00;2.00;;;;;13.23;100.00;102579.84;4912788;28;49945;-78
2023/02/18 08:35:54;;;;;;;;;1.50;1.50;;;;;13.29;100.00;102591.50;4912847;28;50554;-67
2023/02/18 08:38:22;;;;;;;;;2.50;1.00;;;;;12.99;100.00;102527.91;4912810;28;49870;-70
2023/02/18 08:40:47;;;;;;;;;3.00;3.00;;;;;12.92;100.00;102517.94;4912613;28;49675;-67
2023/02/18 08:43:14;;;;;;;;;2.75;2.75;;;;;13.33;100.00;102572.34;4906194;28;49747;-69
2023/02/18 08:45:41;;;;;;;;;2.75;2.75;;;;;13.40;100.00;102590.19;4905975;28;49824;-68
2023/02/18 08:48:08;;;;;;;;;3.25;3.25;;;;;12.72;100.00;102474.09;4903862;28;49798;-69
2023/02/18 08:50:34;;;;;;;;;2.50;2.50;;;;;12.65;100.00;102485.28;4906015;28;49945;-88
2023/02/18 08:53:02;;;;;;;;;4.00;2.25;;;;;12.52;100.00;102453.16;4909256;28;49809;-69
2023/02/18 08:55:31;;;;;;;;;2.00;2.00;;;;;13.28;100.00;102565.09;4908133;28;50647;-74
2023/02/18 08:57:57;;;;;;;;;2.50;2.50;;;;;13.51;100.00;102595.91;4909567;28;49811;-71
2023/02/18 09:00:22;;;;;;;;;1.25;1.25;;;;;12.07;100.00;102346.00;4907587;28;49760;-64
2023/02/18 09:02:48;;;;;;;;;2.75;2.00;;;;;13.57;100.00;102593.47;4907271;28;49935;-65
2023/02/18 09:05:13;;;;;;;;;5.75;3.00;;;;;13.52;100.00;102586.25;4914045;28;51026;-64
2023/02/18 09:07:39;;;;;;;;;2.50;2.00;;;;;13.67;100.00;102608.81;4915907;28;49844;-64
2023/02/18 09:10:09;;;;;;;;;2.00;2.00;;;;;13.03;100.00;102477.13;4915996;28;49866;-65
2023/02/18 09:12:35;;;;;;;;;1.50;0.75;;;;;13.61;100.00;102555.81;4914532;28;49782;-65
2023/02/18 09:15:01;;;;;;;;;2.75;2.75;;;;;13.84;100.00;102595.34;4912386;28;50042;-71
2023/02/18 09:17:27;;;;;;;;;2.00;2.00;;;;;13.87;100.00;102598.09;4910329;28;50117;-67
2023/02/18 09:19:52;;;;;;;;;0.50;0.50;;;;;13.74;100.00;102575.63;4910508;28;49922;-67
2023/02/18 09:22:18;;;;;;;;;2.75;1.75;;;;;13.73;100.00;102571.19;4910460;28;49987;-71
2023/02/18 09:24:44;;;;;;;;;2.00;1.50;;;;;13.35;100.00;102498.53;4911019;28;50968;-66
2023/02/18 09:27:09;;;;;;;;;0.50;0.00;;;;;14.02;100.00;102596.91;4909658;28;49808;-65
2023/02/18 09:29:38;;;;;;;;;1.00;1.00;;;;;14.06;100.00;102600.53;4906608;28;49613;-65
2023/02/18 09:32:04;;;;;;;;;2.25;2.25;;;;;13.86;100.00;102570.78;4909966;28;49740;-65
2023/02/18 09:34:30;;;;;;;;;1.00;1.00;;;;;14.13;100.00;102602.56;4906571;28;49806;-64
2023/02/18 09:36:56;;;;;;;;;0.00;0.00;;;;;14.12;100.00;102610.44;4907894;28;50398;-64
2023/02/18 09:39:22;;;;;;;;;2.25;2.25;;;;;13.80;100.00;102554.75;4906552;28;49714;-64
2023/02/18 09:41:49;;;;;;;;;1.50;1.50;;;;;14.16;100.00;102615.88;4911567;28;50021;-65
2023/02/18 09:44:28;;;;;;;;;2.00;1.00;;;;;14.24;100.00;102609.13;4906766;28;51001;-63
2023/02/18 09:46:59;;;;;;;;;2.00;1.00;;;;;14.22;100.00;102584.41;4907947;28;49866;-63
2023/02/18 09:49:27;;;;;;;;;1.00;1.00;;;;;14.24;100.00;102603.84;4907471;28;50101;-63
2023/02/18 09:51:55;;;;;;;;;2.75;1.50;;;;;14.31;100.00;102608.50;4909305;28;49932;-63
2023/02/18 09:54:22;;;;;;;;;2.00;2.00;;;;;13.93;100.00;102541.13;4906354;28;49913;-63
2023/02/18 09:56:48;;;;;;;;;1.00;1.00;;;;;14.24;100.00;102593.28;4903220;28;50257;-64
2023/02/18 09:59:17;;;;;;;;;2.50;1.00;;;;;13.72;100.00;102490.22;4909395;28;50012;-64
2023/02/18 10:01:46;;;;;;;;;2.00;2.00;;;;;14.33;100.00;102577.75;4923451;28;50028;-67
2023/02/18 10:04:17;;;;;;;;;1.00;1.00;;;;;14.45;100.00;102601.06;4907577;28;50137;-66
2023/02/18 10:06:45;;;;;;;;;3.00;2.00;;;;;14.02;100.00;102530.91;4905146;28;49995;-66
2023/02/18 10:09:19;;;;;;;;;1.00;1.00;;;;;14.19;100.00;102554.34;4906859;28;50123;-66
2023/02/18 10:11:49;;;;;;;;;0.50;0.25;;;;;14.18;100.00;102545.50;4906351;28;49775;-71
2023/02/18 10:14:18;;;;;;;;;2.00;1.75;;;;;14.55;100.00;102605.81;4908536;28;49788;-76
2023/02/18 10:16:45;;;;;;;;;0.25;0.25;;;;;14.20;100.00;102537.66;4909374;28;49998;-66
2023/02/18 10:19:39;;;;;;;;;2.25;1.00;;;;;14.50;100.00;102595.97;4905055;28;49775;-73
2023/02/18 10:22:08;;;;;;;;;1.25;1.25;;;;;14.53;100.00;102614.56;4907694;28;49981;-75
2023/02/18 10:24:39;;;;;;;;;1.00;1.00;;;;;14.58;100.00;102624.44;4906492;28;49929;-79
2023/02/18 10:27:06;;;;;;;;;1.00;1.00;;;;;14.62;100.00;102629.81;4905861;28;49689;-70
2023/02/18 10:29:32;;;;;;;;;3.00;2.25;;;;;14.31;100.00;102560.06;4905571;28;49858;-70
2023/02/18 10:32:21;;;;;;;;;0.25;0.00;;;;;14.65;100.00;102612.31;4905437;28;50026;-67
2023/02/18 10:34:49;;;;;;;;;1.00;1.00;;;;;14.67;100.00;102609.72;4907316;28;50529;-72
2023/02/18 10:37:14;;;;;;;;;2.00;1.00;;;;;14.75;100.00;102618.81;4907243;28;49920;-68
2023/02/18 10:39:52;;;;;;;;;0.00;0.00;;;;;14.74;100.00;102615.25;4903927;28;50126;-73
2023/02/18 10:42:27;;;;;;;;;0.25;0.00;;;;;14.72;100.00;102616.97;4907193;28;49874;-72
2023/02/18 10:45:35;;;;;;;;;1.00;1.00;;;;;14.71;100.00;102609.00;4905935;28;50058;-74
2023/02/18 10:48:35;;;;;;;;;0.00;0.00;;;;;14.76;100.00;102613.56;4903956;28;49839;-70
2023/02/18 10:51:13;;;;;;;;;0.00;0.00;;;;;14.75;100.00;102616.16;4911447;28;49800;-68
2023/02/18 10:53:42;;;;;;;;;0.00;0.00;;;;;14.77;100.00;102615.38;4914260;28;49942;-68
2023/02/18 10:56:28;;;;;;;;;0.00;0.00;;;;;14.57;100.00;102587.38;4911689;28;50037;-67
2023/02/18 10:59:12;;;;;;;;;3.00;0.00;;;;;14.27;100.00;102535.25;4913840;28;49826;-67
2023/02/18 11:01:38;;;;;;;;;1.00;1.00;;;;;14.73;100.00;102623.16;4912872;28;50323;-67
2023/02/18 11:04:12;;;;;;;;;0.00;0.00;;;;;13.81;100.00;102435.13;4913714;28;49898;-64
2023/02/18 11:06:45;;;;;;;;;1.00;1.00;;;;;14.39;100.00;102549.75;4908112;28;50545;-65
2023/02/18 11:09:37;;;;;;;;;0.00;0.00;;;;;14.73;100.00;102620.50;4913802;28;49987;-66
2023/02/18 11:12:12;;;;;;;;;2.50;1.00;;;;;14.43;100.00;102543.72;4914187;28;49983;-67
2023/02/18 11:14:50;;;;;;;;;2.25;2.25;;;;;14.92;100.00;102619.38;4913927;28;49696;-67
2023/02/18 11:17:25;;;;;;;;;0.75;0.75;;;;;14.82;100.00;102597.91;4913893;28;49873;-66
2023/02/18 11:19:53;;;;;;;;;2.00;0.25;;;;;14.82;100.00;102584.69;4913664;28;50055;-73
2023/02/18 11:22:22;;;;;;;;;2.00;1.00;;;;;14.68;100.00;102562.22;4913899;28;49879;-75
2023/02/18 11:24:57;;;;;;;;;0.75;0.00;;;;;15.06;100.00;102615.44;4913899;28;49752;-70
2023/02/18 11:27:33;;;;;;;;;1.00;1.00;;;;;14.93;100.00;102579.75;4912887;28;51025;-71
2023/02/18 11:30:05;;;;;;;;;1.00;1.00;;;;;14.46;100.00;102497.16;4913618;28;49831;-71
2023/02/18 11:32:34;;;;;;;;;0.25;0.25;;;;;14.63;100.00;102523.25;4911856;28;50036;-72
2023/02/18 11:35:02;;;;;;;;;1.00;1.00;;;;;15.28;100.00;102623.19;4913293;28;50030;-71
2023/02/18 11:37:36;;;;;;;;;1.00;1.00;;;;;15.07;100.00;102572.25;4913342;28;49871;-74
2023/02/18 11:40:03;;;;;;;;;2.25;1.25;;;;;15.15;100.00;102602.47;4909393;28;49784;-69
2023/02/18 11:42:28;;;;;;;;;2.00;1.75;;;;;14.26;100.00;102450.69;4913050;28;49962;-68
2023/02/18 11:44:55;;;;;;;;;2.50;0.75;;;;;15.48;100.00;102613.22;4906861;28;49919;-70
2023/02/18 11:47:29;;;;;;;;;0.00;0.00;;;;;15.42;100.00;102605.06;4910114;28;50028;-68
2023/02/18 11:50:15;;;;;;;;;2.50;1.50;;;;;15.06;100.00;102552.84;4907614;28;49740;-70
2023/02/18 11:52:46;;;;;;;;;0.00;0.00;;;;;15.05;100.00;102605.69;4904840;28;49892;-72
2023/02/18 11:55:26;;;;;;;;;1.75;1.00;;;;;14.88;100.00;102518.78;4913212;28;49898;-75
2023/02/18 11:57:51;;;;;;;;;1.00;1.00;;;;;15.42;100.00;102605.06;4912777;28;49933;-68
2023/02/18 12:00:23;;;;;;;;;0.00;0.00;;;;;14.45;100.00;102491.84;4913140;28;49908;-70
2023/02/18 12:02:51;;;;;;;;;0.00;0.00;;;;;14.66;100.00;102479.31;4913007;28;49812;-71
2023/02/18 12:05:23;;;;;;;;;0.00;0.00;;;;;14.92;100.00;102518.88;4912500;28;49902;-71
2023/02/18 12:07:55;;;;;;;;;0.25;0.25;;;;;15.05;100.00;102544.84;4912942;28;50805;-71
2023/02/18 12:10:49;;;;;;;;;1.50;1.00;;;;;15.40;100.00;102620.91;4912241;28;49813;-69
2023/02/18 12:13:38;;;;;;;;;1.00;1.00;;;;;15.45;100.00;102591.97;4911288;28;49838;-71
2023/02/18 12:16:28;;;;;;;;;2.00;1.00;;;;;15.07;100.00;102514.06;4911501;28;50050;-71
2023/02/18 12:18:56;;;;;;;;;1.00;1.00;;;;;15.57;100.00;102581.72;4910943;28;49927;-70
2023/02/18 12:21:33;;;;;;;;;3.25;2.00;;;;;14.68;100.00;102431.78;4911304;28;50589;-70
2023/02/18 12:24:35;;;;;;;;;0.25;0.25;;;;;14.28;100.00;102349.53;4911326;28;49819;-71
2023/02/18 12:27:42;;;;;;;;;1.00;1.00;;;;;15.22;100.00;102497.75;4900937;28;50231;-70
2023/02/18 12:30:58;;;;;;;;;0.00;0.00;;;;;15.61;100.00;102553.59;4904594;28;50251;-71
2023/02/18 12:33:55;;;;;;;;;0.00;0.00;;;;;15.42;100.00;102525.69;4898933;28;49792;-74
2023/02/18 12:36:38;;;;;;;;;0.25;0.25;;;;;15.51;100.00;102555.06;4907854;28;50454;-64
2023/02/18 12:39:21;;;;;;;;;0.50;0.50;;;;;15.48;100.00;102562.03;4911263;28;49709;-65
2023/02/18 12:41:58;;;;;;;;;1.00;1.00;;;;;15.46;100.00;102562.88;4910807;28;50095;-67
2023/02/18 12:44:26;;;;;;;;;4.00;4.00;;;;;15.50;100.00;102558.56;4910737;28;49756;-68
2023/02/18 12:47:27;;;;;;;;;0.50;0.00;;;;;15.54;100.00;102546.31;4911148;28;49840;-68
2023/02/18 12:50:04;;;;;;;;;1.25;1.25;;;;;15.59;100.00;102542.94;4889174;29;49761;-67
2023/02/18 12:52:32;;;;;;;;;0.75;0.75;;;;;15.65;100.00;102547.56;4903700;28;51540;-66
2023/02/18 12:55:24;;;;;;;;;0.00;0.00;;;;;15.73;100.00;102540.75;4910620;28;50138;-67
2023/02/18 12:58:04;;;;;;;;;0.25;0.00;;;;;15.67;100.00;102545.84;4908518;28;49965;-67
2023/02/18 13:00:54;;;;;;;;;0.75;0.75;;;;;15.69;100.00;102542.38;4910331;28;49905;-66
2023/02/18 13:03:38;;;;;;;;;0.00;0.00;;;;;15.75;100.00;102533.72;4910647;28;50203;-67
2023/02/18 13:06:24;;;;;;;;;0.00;0.00;;;;;15.73;100.00;102538.09;4910848;28;49831;-66
2023/02/18 13:09:20;;;;;;;;;3.50;1.00;;;;;15.71;100.00;102545.06;4911626;28;49701;-67
2023/02/18 13:11:57;;;;;;;;;1.75;1.00;;;;;15.60;100.00;102522.66;4912533;28;50119;-67
2023/02/18 13:14:36;;;;;;;;;1.50;1.00;;;;;15.17;100.00;102435.03;4911656;28;49846;-66
2023/02/18 13:17:04;;;;;;;;;3.00;2.00;;;;;15.53;100.00;102512.75;4912144;28;49755;-66
2023/02/18 13:19:58;;;;;;;;;2.25;0.00;;;;;15.75;100.00;102528.44;4912364;28;49862;-68
2023/02/18 13:22:27;;;;;;;;;1.50;1.00;;;;;15.25;100.00;102440.53;4911513;28;49855;-68
2023/02/18 13:24:56;;;;;;;;;0.00;0.00;;;;;15.48;100.00;102490.56;4912145;28;49699;-68
2023/02/18 13:27:30;;;;;;;;;1.00;1.00;;;;;15.61;100.00;102521.84;4911899;28;49886;-69
2023/02/18 13:30:09;;;;;;;;;0.25;0.25;;;;;15.43;100.00;102498.34;4912031;28;49775;-77
2023/02/18 13:32:37;;;;;;;;;0.25;0.25;;;;;15.56;100.00;102516.41;4910760;28;50052;-67
2023/02/18 13:35:11;;;;;;;;;1.75;0.75;;;;;15.51;100.00;102518.00;4911561;28;50412;-66
2023/02/18 13:38:11;;;;;;;;;0.00;0.00;;;;;15.40;100.00;102509.75;4913288;28;49878;-67
2023/02/18 13:40:38;;;;;;;;;1.50;1.50;;;;;15.52;100.00;102526.84;4915280;28;50107;-67
2023/02/18 13:43:26;;;;;;;;;1.00;1.00;;;;;15.38;100.00;102494.69;4915252;28;49810;-67
2023/02/18 13:46:21;;;;;;;;;1.00;1.00;;;;;15.58;100.00;102524.38;4914982;28;49635;-67
2023/02/18 13:48:53;;;;;;;;;1.50;1.50;;;;;15.44;100.00;102516.03;4915018;28;49841;-67
2023/02/18 13:51:43;;;;;;;;;1.25;0.25;;;;;15.31;100.00;102522.72;4915148;28;50033;-67
2023/02/18 13:54:17;;;;;;;;;1.25;0.75;;;;;15.25;100.00;102519.91;4915252;28;49938;-66
2023/02/18 13:56:59;;;;;;;;;0.25;0.25;;;;;15.10;100.00;102491.25;4914966;28;50868;-67
2023/02/18 13:59:35;;;;;;;;;1.00;1.00;;;;;15.16;100.00;102520.53;4914552;28;49686;-66
2023/02/18 14:02:26;;;;;;;;;2.00;2.00;;;;;14.98;100.00;102474.13;4914885;28;49893;-67
2023/02/18 14:05:08;;;;;;;;;1.00;1.00;;;;;14.77;100.00;102446.19;4915159;28;49629;-67
2023/02/18 14:07:39;;;;;;;;;1.25;1.00;;;;;15.12;100.00;102499.22;4914708;28;50881;-66
2023/02/18 14:10:23;;;;;;;;;0.25;0.25;;;;;14.36;100.00;102375.25;4914813;28;49842;-67
2023/02/18 14:12:57;;;;;;;;;1.00;1.00;;;;;15.22;100.00;102497.75;4914488;28;50128;-67
2023/02/18 14:15:22;;;;;;;;;1.00;0.00;;;;;15.22;100.00;102485.41;4915049;28;50009;-67
2023/02/18 14:18:09;;;;;;;;;0.00;0.00;;;;;15.09;100.00;102455.06;4914513;28;50916;-66
2023/02/18 14:20:37;;;;;;;;;2.00;2.00;;;;;15.17;100.00;102474.72;4913362;28;49855;-67
2023/02/18 14:23:18;;;;;;;;;2.00;2.00;;;;;15.16;100.00;102466.72;4914685;28;49985;-67
2023/02/18 14:25:57;;;;;;;;;1.00;1.00;;;;;15.19;100.00;102466.81;4913549;28;50030;-66
2023/02/18 14:28:35;;;;;;;;;3.25;3.25;;;;;15.27;100.00;102464.41;4912695;28;50393;-66
2023/02/18 14:31:12;;;;;;;;;1.00;1.00;;;;;15.36;100.00;102484.06;4914350;28;49884;-66
2023/02/18 14:33:44;;;;;;;;;1.00;1.00;;;;;15.06;100.00;102432.94;4914480;28;50011;-66
2023/02/18 14:36:15;;;;;;;;;1.00;1.00;;;;;15.26;100.00;102479.38;4909116;28;49862;-66
2023/02/18 14:38:53;;;;;;;;;1.25;1.25;;;;;15.04;100.00;102442.53;4914176;28;50969;-65
2023/02/18 14:41:21;;;;;;;;;1.75;1.00;;;;;15.26;100.00;102478.47;4914515;28;49846;-66
2023/02/18 14:44:08;;;;;;;;;0.25;0.25;;;;;15.25;100.00;102474.94;4913850;28;50014;-66
2023/02/18 14:46:54;;;;;;;;;1.00;1.00;;;;;15.05;100.00;102423.19;4914398;28;49909;-66
2023/02/18 14:49:40;;;;;;;;;1.00;1.00;;;;;15.36;100.00;102473.50;4913827;28;50357;-66
2023/02/18 14:52:12;;;;;;;;;1.00;1.00;;;;;15.45;100.00;102464.91;4913815;28;49879;-66
2023/02/18 14:54:40;;;;;;;;;0.75;0.75;;;;;15.48;100.00;102448.22;4914496;28;49948;-66
2023/02/18 14:57:12;;;;;;;;;0.00;0.00;;;;;15.33;100.00;102422.22;4914884;28;49776;-72
2023/02/18 14:59:44;;;;;;;;;1.00;1.00;;;;;15.32;100.00;102431.91;4912481;28;51532;-73
2023/02/18 15:02:21;;;;;;;;;2.00;2.00;;;;;15.33;100.00;102424.84;4913943;28;49981;-71
2023/02/18 15:04:49;;;;;;;;;1.00;1.00;;;;;15.54;100.00;102446.66;4913926;28;49784;-71
2023/02/18 15:07:18;;;;;;;;;2.50;1.50;;;;;15.49;100.00;102450.00;4914225;28;49772;-72
2023/02/18 15:09:49;;;;;;;;;2.50;2.00;;;;;15.36;100.00;102433.81;4913494;28;49852;-69
2023/02/18 15:12:20;;;;;;;;;1.75;1.00;;;;;15.34;100.00;102450.47;4913120;28;49946;-69
2023/02/18 15:14:48;;;;;;;;;2.00;2.00;;;;;15.00;100.00;102395.72;4914015;28;49746;-70
2023/02/18 15:17:26;;;;;;;;;2.00;2.00;;;;;14.92;100.00;102394.59;4914139;28;49800;-71
2023/02/18 15:19:56;;;;;;;;;0.00;0.00;;;;;15.08;100.00;102426.81;4913515;28;50466;-67
2023/02/18 15:22:29;;;;;;;;;0.50;0.50;;;;;15.08;100.00;102437.41;4913707;28;49925;-69
2023/02/18 15:24:56;;;;;;;;;2.00;2.00;;;;;14.93;100.00;102404.31;4912676;28;49783;-69
2023/02/18 15:27:28;;;;;;;;;3.25;1.25;;;;;14.47;100.00;102335.13;4913647;28;49812;-71
2023/02/18 15:30:21;;;;;;;;;1.50;1.50;;;;;14.97;100.00;102432.66;4913417;28;51135;-67
2023/02/18 15:32:52;;;;;;;;;0.50;0.50;;;;;14.96;100.00;102429.13;4913599;28;49841;-68
2023/02/18 15:35:19;;;;;;;;;0.50;0.00;;;;;14.93;100.00;102426.38;4913513;28;49682;-69
2023/02/18 15:37:50;;;;;;;;;1.50;1.50;;;;;14.97;100.00;102424.72;4907636;28;49862;-69
2023/02/18 15:40:16;;;;;;;;;1.00;1.00;;;;;14.46;100.00;102348.28;4907722;28;49816;-69
2023/02/18 15:42:48;;;;;;;;;2.00;2.00;;;;;14.88;100.00;102413.03;4911837;28;49938;-73
2023/02/18 15:45:45;;;;;;;;;1.75;1.75;;;;;14.36;100.00;102323.31;4913538;28;50206;-74
2023/02/18 15:48:32;;;;;;;;;1.00;1.00;;;;;14.98;100.00;102427.41;4911268;28;49843;-71
2023/02/18 15:51:03;;;;;;;;;1.00;1.00;;;;;14.75;100.00;102394.09;4908706;28;50974;-72
2023/02/18 15:53:29;;;;;;;;;1.00;1.00;;;;;14.58;100.00;102378.66;4891689;28;49954;-73
2023/02/18 15:55:55;;;;;;;;;2.25;1.50;;;;;14.71;100.00;102395.75;4905190;28;49646;-77
2023/02/18 15:58:30;;;;;;;;;3.00;3.00;;;;;14.87;100.00;102423.56;4893865;28;49734;-73
2023/02/18 16:01:05;;;;;;;;;1.00;0.25;;;;;14.68;100.00;102382.47;4892265;28;50348;-84
2023/02/18 16:03:45;;;;;;;;;0.00;0.00;;;;;14.81;100.00;102424.25;4899754;28;49956;-74
2023/02/18 16:06:18;;;;;;;;;1.50;1.50;;;;;14.56;100.00;102395.28;4888472;28;50018;-70
2023/02/18 16:09:02;;;;;;;;;1.00;1.00;;;;;14.56;100.00;102411.16;4892985;28;49996;-71
2023/02/18 16:11:38;;;;;;;;;1.00;1.00;;;;;14.62;100.00;102423.66;4909903;28;49978;-71
2023/02/18 16:14:05;;;;;;;;;1.00;1.00;;;;;14.43;100.00;102408.94;4912331;28;49992;-71
2023/02/18 16:16:33;;;;;;;;;2.25;2.25;;;;;14.42;100.00;102393.94;4912649;28;49927;-71
2023/02/18 16:19:00;;;;;;;;;1.00;1.00;;;;;14.52;100.00;102407.53;4912279;28;49811;-67
2023/02/18 16:21:45;;;;;;;;;1.75;1.75;;;;;14.33;100.00;102391.91;4912467;28;51155;-73
2023/02/18 16:24:28;;;;;;;;;2.00;2.00;;;;;14.36;100.00;102407.84;4910038;28;49938;-72
2023/02/18 16:26:58;;;;;;;;;0.25;0.25;;;;;14.37;100.00;102407.00;4913067;28;49778;-70
2023/02/18 16:29:41;;;;;;;;;2.00;2.00;;;;;14.09;100.00;102373.56;4912303;28;49776;-69
2023/02/18 16:32:06;;;;;;;;;2.00;2.00;;;;;14.21;100.00;102388.91;4912686;28;49996;-69
2023/02/18 16:34:32;;;;;;;;;1.50;1.50;;;;;14.39;100.00;102431.75;4912943;28;49723;-71
2023/02/18 16:39:42;;;;;;;;;2.00;2.00;;;;;14.12;100.00;102413.25;4912821;28;50148;-65
2023/02/18 16:42:10;;;;;;;;;4.50;3.75;;;;;14.08;100.00;102398.16;4911930;28;49940;-68
2023/02/18 16:44:35;;;;;;;;;3.00;2.00;;;;;13.78;100.00;102355.81;4912624;28;49763;-67
2023/02/18 16:47:01;;;;;;;;;1.00;1.00;;;;;14.04;100.00;102404.19;4912706;28;49779;-67
2023/02/18 16:49:27;;;;;;;;;1.50;1.50;;;;;13.98;100.00;102396.94;4912935;28;50581;-67
2023/02/18 16:51:53;;;;;;;;;1.25;1.25;;;;;13.97;100.00;102389.00;4912558;28;50899;-74
2023/02/18 16:54:18;;;;;;;;;2.25;2.00;;;;;14.09;100.00;102401.69;4912559;28;49884;-65
2023/02/18 16:56:44;;;;;;;;;4.00;4.00;;;;;14.18;100.00;102424.00;4912770;28;49695;-65
2023/02/18 16:59:09;;;;;;;;;2.50;2.50;;;;;14.05;100.00;102413.91;4912203;28;49997;-66
2023/02/18 17:01:42;;;;;;;;;3.00;3.00;;;;;14.10;100.00;102424.63;4912278;28;49735;-66
2023/02/18 17:04:14;;;;;;;;;1.75;1.75;;;;;14.07;100.00;102443.00;4912480;28;49717;-79
2023/02/18 17:06:41;;;;;;;;;3.25;3.00;;;;;14.07;100.00;102445.63;4910911;28;49853;-69
2023/02/18 17:09:26;;;;;;;;;2.75;2.75;;;;;14.01;100.00;102463.09;4912528;28;49736;-70
2023/02/18 17:11:54;;;;;;;;;2.00;2.00;;;;;13.37;100.00;102326.28;4913936;28;49859;-65
2023/02/18 17:14:21;;;;;;;;;3.00;3.00;;;;;12.38;100.00;102172.56;4915372;28;49921;-67
2023/02/18 17:16:50;;;;;;;;;2.75;2.00;;;;;13.93;100.00;102429.34;4915688;28;49944;-68
2023/02/18 17:19:15;;;;;;;;;2.25;2.25;;;;;13.96;100.00;102448.81;4915567;28;49967;-68
2023/02/18 17:21:41;;;;;;;;;3.50;3.50;;;;;13.90;100.00;102434.53;4914611;28;50051;-66
2023/02/18 17:24:12;;;;;;;;;4.50;3.50;;;;;13.90;100.00;102429.25;4915223;28;49804;-70
2023/02/18 17:26:37;;;;;;;;;2.00;2.00;;;;;13.90;100.00;102438.06;4914394;28;49754;-62
2023/02/18 17:29:04;;;;;;;;;3.50;3.50;;;;;13.42;100.00;102371.31;4915438;28;49952;-70
2023/02/18 17:31:35;;;;;;;;;5.00;3.75;;;;;13.90;100.00;102431.91;4915175;28;51032;-68
2023/02/18 17:34:05;;;;;;;;;4.00;3.00;;;;;13.95;100.00;102447.03;4914632;28;50008;-66
2023/02/18 17:36:30;;;;;;;;;5.75;4.00;;;;;13.93;100.00;102443.44;4915291;28;50251;-65
2023/02/18 17:38:57;;;;;;;;;2.00;2.00;;;;;13.71;100.00;102410.16;4915684;28;49636;-66
2023/02/18 17:41:22;;;;;;;;;3.00;3.00;;;;;13.85;100.00;102454.59;4915250;28;50908;-68
2023/02/18 17:43:47;;;;;;;;;4.00;4.00;;;;;13.79;100.00;102433.25;4912825;28;49972;-66
2023/02/18 17:46:15;;;;;;;;;4.00;3.00;;;;;13.80;100.00;102437.69;4909098;28;49654;-66
2023/02/18 17:48:43;;;;;;;;;4.00;4.00;;;;;13.78;100.00;102439.38;4907064;28;49842;-68
2023/02/18 17:51:38;;;;;;;;;3.00;3.00;;;;;13.79;100.00;102441.16;4906388;28;51121;-67
2023/02/18 17:54:12;;;;;;;;;4.50;4.50;;;;;13.27;100.00;102345.28;4899454;28;50413;-65
2023/02/18 17:56:37;;;;;;;;;3.25;2.00;;;;;13.80;100.00;102442.97;4911635;28;49637;-66
2023/02/18 17:59:05;;;;;;;;;5.00;4.75;;;;;13.71;100.00;102433.91;4926812;28;49344;-67
2023/02/18 18:01:30;;;;;;;;;3.25;3.25;;;;;13.71;100.00;102435.66;4907785;28;59140;-69
2023/02/18 18:03:55;;;;;;;;;4.50;2.25;;;;;13.73;100.00;102445.41;4908518;28;49702;-66
2023/02/18 18:06:21;;;;;;;;;4.75;4.75;;;;;13.60;100.00;102423.78;4912364;28;49766;-70
2023/02/18 18:08:47;;;;;;;;;4.75;4.75;;;;;13.61;100.00;102425.63;4910835;28;49716;-67
2023/02/18 18:11:16;;;;;;;;;5.75;5.75;;;;;13.68;100.00;102441.69;4914685;28;51239;-69